createdAt,value
2019-02-05T00:02:51.919Z,1.90
2019-02-05T00:06:56.496Z,1.60
2019-02-05T00:11:01.813Z,1.60
2019-02-05T00:15:06.504Z,1.70
2019-02-05T00:19:11.569Z,1.80
2019-02-05T00:23:16.712Z,2.10
2019-02-05T00:27:21.286Z,2.20
2019-02-05T00:31:27.196Z,1.70
2019-02-05T00:35:32.027Z,1.90
2019-02-05T00:39:36.654Z,2.00
2019-02-05T00:43:41.228Z,2.20
2019-02-05T00:47:45.820Z,2.30
2019-02-05T00:51:50.530Z,2.40
2019-02-05T00:55:55.214Z,2.50
2019-02-05T00:59:59.902Z,2.00
2019-02-05T01:04:05.183Z,1.70
2019-02-05T01:08:09.757Z,1.70
2019-02-05T01:12:15.045Z,1.60
2019-02-05T01:16:19.631Z,1.30
2019-02-05T01:20:24.441Z,1.20
2019-02-05T01:24:29.044Z,1.40
2019-02-05T01:28:33.853Z,1.40
2019-02-05T01:32:38.692Z,1.10
2019-02-05T01:36:43.282Z,1.50
2019-02-05T01:40:48.001Z,1.60
2019-02-05T01:44:52.872Z,1.60
2019-02-05T01:48:57.727Z,1.70
2019-02-05T01:53:02.537Z,1.60
2019-02-05T01:57:07.182Z,1.60
2019-02-05T02:01:12.577Z,1.40
2019-02-05T02:05:17.460Z,1.40
2019-02-05T02:09:22.060Z,1.50
2019-02-05T02:13:26.655Z,1.50
2019-02-05T02:17:31.226Z,1.60
2019-02-05T02:21:36.195Z,1.50
2019-02-05T02:25:41.289Z,1.50
2019-02-05T02:29:46.123Z,1.70
2019-02-05T02:33:50.698Z,1.80
2019-02-05T02:37:55.278Z,1.60
2019-02-05T02:42:00.020Z,1.50
2019-02-05T02:46:04.876Z,1.30
2019-02-05T02:50:11.755Z,1.20
2019-02-05T02:54:16.344Z,1.30
2019-02-05T02:58:21.035Z,1.30
2019-02-05T03:02:26.361Z,1.10
2019-02-05T03:06:30.992Z,1.00
2019-02-05T03:10:35.724Z,1.00
2019-02-05T03:14:40.299Z,1.00
2019-02-05T03:18:44.887Z,1.10
2019-02-05T03:22:49.625Z,1.20
2019-02-05T03:26:54.343Z,1.30
2019-02-05T03:30:59.036Z,1.30
2019-02-05T03:35:03.865Z,1.40
2019-02-05T03:39:08.456Z,1.60
2019-02-05T03:43:13.205Z,1.60
2019-02-05T03:47:19.008Z,1.70
2019-02-05T03:52:14.534Z,1.50
2019-02-05T03:56:42.417Z,1.70
2019-02-05T04:01:31.805Z,1.80
2019-02-05T04:05:58.064Z,1.50
2019-02-05T04:10:49.672Z,1.40
2019-02-05T04:15:32.904Z,1.70
2019-02-05T04:19:55.594Z,1.80
2019-02-05T04:24:27.352Z,1.60
2019-02-05T04:28:57.355Z,1.70
2019-02-05T04:33:32.117Z,1.80
2019-02-05T04:38:23.684Z,1.70
2019-02-05T04:42:44.985Z,1.70
2019-02-05T04:47:12.902Z,1.50
2019-02-05T04:51:39.231Z,1.40
2019-02-05T04:56:23.278Z,1.20
2019-02-05T05:00:56.687Z,1.20
2019-02-05T05:05:55.280Z,1.00
2019-02-05T05:10:00.964Z,1.00
2019-02-05T05:14:07.350Z,1.20
2019-02-05T05:18:11.928Z,1.10
2019-02-05T05:22:16.684Z,1.10
2019-02-05T05:26:21.311Z,1.20
2019-02-05T05:30:26.058Z,1.40
2019-02-05T05:34:31.143Z,1.30
2019-02-05T05:38:36.025Z,1.30
2019-02-05T05:42:40.884Z,1.10
2019-02-05T05:46:45.451Z,1.30
2019-02-05T05:50:50.255Z,1.20
2019-02-05T05:54:54.865Z,1.10
2019-02-05T05:58:59.692Z,0.90
2019-02-05T06:03:04.460Z,0.90
2019-02-05T06:07:09.607Z,1.00
2019-02-05T06:11:14.733Z,1.00
2019-02-05T06:15:19.321Z,1.10
2019-02-05T06:19:24.131Z,1.00
2019-02-05T06:23:28.740Z,0.80
2019-02-05T06:27:33.425Z,0.90
2019-02-05T06:31:38.043Z,1.00
2019-02-05T06:35:42.621Z,1.00
2019-02-05T06:39:47.509Z,0.70
2019-02-05T06:43:52.305Z,0.50
2019-02-05T06:47:56.949Z,0.60
2019-02-05T06:52:01.688Z,0.60
2019-02-05T06:56:06.321Z,0.70
2019-02-05T07:00:14.608Z,0.60
2019-02-05T07:04:19.205Z,0.50
2019-02-05T07:08:24.027Z,0.60
2019-02-05T07:12:29.115Z,0.70
2019-02-05T07:16:33.752Z,0.70
2019-02-05T07:20:38.599Z,0.70
2019-02-05T07:24:43.197Z,0.80
2019-02-05T07:28:57.986Z,0.90
2019-02-05T07:32:54.317Z,0.90
2019-02-05T07:36:58.959Z,0.80
2019-02-05T07:41:03.697Z,0.70
2019-02-05T07:45:10.788Z,0.70
2019-02-05T07:49:15.625Z,0.80
2019-02-05T07:53:20.157Z,0.80
2019-02-05T07:57:24.733Z,0.70
2019-02-05T08:01:29.289Z,0.70
2019-02-05T08:05:33.855Z,0.50
2019-02-05T08:09:38.526Z,0.10
2019-02-05T08:13:43.145Z,0.30
2019-02-05T08:17:47.721Z,0.40
2019-02-05T08:21:52.302Z,0.50
2019-02-05T08:25:56.947Z,0.80
2019-02-05T08:30:01.656Z,0.90
2019-02-05T08:34:07.680Z,1.00
2019-02-05T08:38:12.340Z,1.20
2019-02-05T08:42:17.073Z,1.30
2019-02-05T08:46:21.768Z,1.50
2019-02-05T08:50:27.613Z,1.50
2019-02-05T08:54:32.280Z,1.60
2019-02-05T08:58:37.225Z,1.80
2019-02-05T09:02:41.971Z,1.50
2019-02-05T09:06:46.616Z,1.70
2019-02-05T09:10:51.252Z,1.70
2019-02-05T09:14:55.835Z,1.40
2019-02-05T09:19:00.450Z,1.50
2019-02-05T09:23:05.282Z,1.50
2019-02-05T09:27:09.923Z,1.50
2019-02-05T09:31:14.545Z,1.50
2019-02-05T09:35:19.114Z,1.70
2019-02-05T09:39:23.733Z,1.80
2019-02-05T09:43:28.288Z,2.00
2019-02-05T09:47:32.919Z,2.10
2019-02-05T09:51:37.470Z,2.20
2019-02-05T09:55:42.128Z,2.20
2019-02-05T09:59:46.792Z,2.20
2019-02-05T10:03:51.344Z,2.30
2019-02-05T10:07:56.076Z,2.20
2019-02-05T10:12:01.020Z,2.50
2019-02-05T10:16:06.074Z,2.50
2019-02-05T10:20:10.990Z,2.70
2019-02-05T10:24:16.272Z,2.70
2019-02-05T10:28:20.824Z,2.50
2019-02-05T10:32:25.385Z,2.30
2019-02-05T10:36:29.911Z,1.90
2019-02-05T10:40:34.569Z,2.10
2019-02-05T10:44:39.216Z,2.10
2019-02-05T10:48:43.861Z,2.00
2019-02-05T10:52:48.489Z,1.90
2019-02-05T10:56:53.132Z,2.20
2019-02-05T11:00:57.970Z,2.70
2019-02-05T11:05:02.623Z,2.90
2019-02-05T11:09:09.768Z,3.10
2019-02-05T11:13:14.400Z,3.40
2019-02-05T11:17:18.932Z,3.70
2019-02-05T11:21:23.493Z,3.50
2019-02-05T11:25:28.140Z,3.50
2019-02-05T11:29:32.775Z,3.40
2019-02-05T11:33:37.725Z,3.50
2019-02-05T11:37:42.312Z,3.50
2019-02-05T11:41:47.468Z,3.80
2019-02-05T11:45:52.096Z,3.90
2019-02-05T11:49:56.657Z,3.70
2019-02-05T11:54:01.209Z,4.10
2019-02-05T11:58:05.844Z,4.50
2019-02-05T12:02:10.460Z,4.80
2019-02-05T12:06:15.318Z,5.10
2019-02-05T12:10:19.979Z,5.50
2019-02-05T12:14:24.595Z,5.60
2019-02-05T12:18:29.305Z,5.70
2019-02-05T12:22:33.856Z,6.00
2019-02-05T12:26:38.424Z,6.10
2019-02-05T12:30:45.322Z,6.30
2019-02-05T12:34:49.593Z,6.40
2019-02-05T12:38:54.145Z,6.20
2019-02-05T12:42:58.716Z,6.50
2019-02-05T12:47:03.298Z,6.40
2019-02-05T12:51:07.882Z,6.70
2019-02-05T12:55:16.005Z,6.90
2019-02-05T12:59:19.083Z,7.00
2019-02-05T13:03:24.719Z,7.20
2019-02-05T13:07:29.289Z,7.90
2019-02-05T13:11:33.860Z,8.70
2019-02-05T13:15:38.424Z,10.60
2019-02-05T13:19:42.991Z,12.30
2019-02-05T13:23:47.588Z,13.50
2019-02-05T13:27:52.288Z,14.60
2019-02-05T13:31:56.876Z,15.10
2019-02-05T13:36:01.816Z,15.50
2019-02-05T13:40:08.143Z,15.70
2019-02-05T13:44:12.712Z,16.00
2019-02-05T13:48:17.365Z,15.00
2019-02-05T13:52:21.964Z,15.20
2019-02-05T13:56:26.515Z,14.50
2019-02-05T14:00:36.123Z,13.50
2019-02-05T14:04:41.286Z,13.30
2019-02-05T14:08:46.054Z,13.10
2019-02-05T14:12:51.021Z,12.40
2019-02-05T14:16:55.611Z,12.00
2019-02-05T14:21:00.176Z,12.20
2019-02-05T14:25:05.995Z,13.30
2019-02-05T14:29:10.788Z,13.60
2019-02-05T14:33:15.348Z,13.30
2019-02-05T14:37:19.923Z,12.90
2019-02-05T14:41:24.484Z,12.30
2019-02-05T14:45:29.060Z,11.40
2019-02-05T14:49:35.196Z,11.00
2019-02-05T14:53:39.736Z,10.60
2019-02-05T14:57:44.318Z,9.90
2019-02-05T15:01:49.951Z,9.40
2019-02-05T15:05:54.681Z,8.70
2019-02-05T15:09:59.260Z,8.00
2019-02-05T15:14:04.413Z,7.50
2019-02-05T15:18:11.152Z,7.10
2019-02-05T15:22:15.779Z,6.80
2019-02-05T15:26:20.753Z,6.60
2019-02-05T15:30:27.946Z,6.00
2019-02-05T15:34:32.656Z,5.60
2019-02-05T15:38:37.200Z,5.20
2019-02-05T15:42:41.900Z,5.10
2019-02-05T15:46:46.464Z,4.80
2019-02-05T15:50:51.048Z,4.70
2019-02-05T15:54:55.616Z,4.70
2019-02-05T15:59:00.152Z,4.60
2019-02-05T16:03:05.704Z,4.50
2019-02-05T16:07:10.280Z,4.50
2019-02-05T16:11:14.844Z,4.40
2019-02-05T16:15:19.410Z,4.00
2019-02-05T16:19:23.960Z,3.90
2019-02-05T16:23:28.521Z,3.80
2019-02-05T16:27:33.100Z,3.80
2019-02-05T16:31:37.690Z,3.80
2019-02-05T16:35:42.264Z,3.90
2019-02-05T16:39:46.884Z,3.80
2019-02-05T16:43:51.476Z,3.80
2019-02-05T16:47:56.641Z,3.70
2019-02-05T16:52:01.280Z,3.60
2019-02-05T16:56:05.844Z,3.60
2019-02-05T17:00:27.635Z,3.50
2019-02-05T17:04:32.172Z,3.10
2019-02-05T17:08:37.127Z,3.00
2019-02-05T17:12:41.775Z,3.20
2019-02-05T17:16:46.354Z,3.10
2019-02-05T17:20:52.173Z,2.90
2019-02-05T17:24:56.720Z,2.90
2019-02-05T17:29:01.309Z,2.90
2019-02-05T17:33:06.057Z,3.00
2019-02-05T17:37:10.640Z,3.00
2019-02-05T17:41:15.340Z,2.80
2019-02-05T17:45:22.137Z,2.80
2019-02-05T17:49:26.705Z,2.70
2019-02-05T17:53:31.792Z,2.60
2019-02-05T17:57:36.428Z,2.50
2019-02-05T18:01:41.725Z,2.60
2019-02-05T18:05:46.981Z,2.80
2019-02-05T18:09:51.760Z,2.90
2019-02-05T18:13:56.423Z,2.80
2019-02-05T18:18:01.752Z,2.90
2019-02-05T18:22:08.092Z,2.90
2019-02-05T18:26:14.440Z,2.90
2019-02-05T18:30:25.360Z,2.70
2019-02-05T18:34:31.066Z,2.80
2019-02-05T18:38:36.132Z,2.80
2019-02-05T18:42:41.556Z,2.50
2019-02-05T18:46:46.940Z,2.40
2019-02-05T18:50:52.488Z,2.40
2019-02-05T18:54:58.442Z,2.20
2019-02-05T18:59:03.333Z,2.30
2019-02-05T19:03:15.754Z,2.10
2019-02-05T19:07:17.338Z,2.20
2019-02-05T19:11:23.239Z,2.20
2019-02-05T19:15:30.116Z,2.20
2019-02-05T19:19:35.753Z,2.00
2019-02-05T19:23:42.026Z,2.10
2019-02-05T19:27:47.873Z,2.30
2019-02-05T19:31:53.665Z,2.10
2019-02-05T19:36:00.408Z,2.20
2019-02-05T19:40:05.985Z,2.20
2019-02-05T19:44:11.503Z,2.30
2019-02-05T19:48:24.964Z,2.30
2019-02-05T19:52:30.683Z,2.10
2019-02-05T19:56:38.387Z,2.10
2019-02-05T20:00:43.947Z,2.20
2019-02-05T20:04:54.509Z,2.20
2019-02-05T20:09:00.000Z,2.30
2019-02-05T20:13:05.769Z,2.40
2019-02-05T20:17:12.146Z,2.30
2019-02-05T20:21:20.047Z,2.40
2019-02-05T20:25:25.799Z,2.20
2019-02-05T20:29:31.716Z,2.00
2019-02-05T20:33:37.574Z,2.10
2019-02-05T20:37:43.312Z,1.90
2019-02-05T20:41:48.740Z,1.80
2019-02-05T20:45:54.008Z,1.90
2019-02-05T20:49:59.984Z,2.10
2019-02-05T20:54:07.051Z,2.10
2019-02-05T20:58:11.951Z,2.10
2019-02-05T21:02:19.083Z,2.30
2019-02-05T21:06:27.916Z,2.10
2019-02-05T21:10:34.968Z,2.10
2019-02-05T21:14:40.595Z,2.10
2019-02-05T21:18:45.933Z,2.20
2019-02-05T21:22:50.909Z,2.10
2019-02-05T21:26:56.102Z,2.20
2019-02-05T21:31:01.169Z,2.40
2019-02-05T21:35:06.044Z,2.40
2019-02-05T21:39:11.899Z,2.10
2019-02-05T21:43:16.656Z,2.00
2019-02-05T21:47:21.184Z,2.10
2019-02-05T21:51:26.020Z,1.90
2019-02-05T21:55:30.684Z,2.00
2019-02-05T21:59:35.373Z,1.70
2019-02-05T22:03:39.964Z,1.70
2019-02-05T22:07:44.815Z,1.60
2019-02-05T22:11:49.588Z,1.60
2019-02-05T22:15:55.096Z,1.70
2019-02-05T22:20:00.228Z,1.80
2019-02-05T22:24:05.506Z,1.70
2019-02-05T22:28:10.266Z,1.70
2019-02-05T22:32:15.472Z,1.40
2019-02-05T22:36:20.220Z,1.60
2019-02-05T22:40:26.163Z,1.50
2019-02-05T22:44:31.130Z,1.50
2019-02-05T22:48:36.109Z,1.50
2019-02-05T22:52:40.817Z,1.30
2019-02-05T22:56:46.962Z,1.20
2019-02-05T23:01:10.509Z,1.10
2019-02-05T23:05:59.989Z,1.00
2019-02-05T23:10:22.498Z,0.70
2019-02-05T23:14:27.340Z,1.10
2019-02-05T23:18:31.960Z,1.20
2019-02-05T23:22:36.686Z,1.10
2019-02-05T23:26:41.836Z,1.20
2019-02-05T23:30:47.443Z,1.20
2019-02-05T23:35:02.060Z,1.10
2019-02-05T23:38:58.440Z,1.30
2019-02-05T23:43:11.444Z,0.90
2019-02-05T23:47:20.252Z,1.00
2019-02-05T23:51:24.984Z,1.10
2019-02-05T23:55:30.134Z,1.20
2019-02-05T23:59:34.960Z,1.20
